createdAt,value
2023-01-31T00:04:46.025Z,85.17
2023-01-31T00:09:48.041Z,85.38
2023-01-31T00:14:53.500Z,85.38
2023-01-31T00:19:55.502Z,85.49
2023-01-31T00:24:57.371Z,85.18
2023-01-31T00:29:59.374Z,84.52
2023-01-31T00:35:01.456Z,84.40
2023-01-31T00:40:05.044Z,84.88
2023-01-31T00:45:07.569Z,84.95
2023-01-31T00:50:14.137Z,84.57
2023-01-31T00:55:16.397Z,84.47
2023-01-31T01:00:18.721Z,84.36
2023-01-31T01:05:22.212Z,83.97
2023-01-31T01:10:24.537Z,83.73
2023-01-31T01:15:26.539Z,83.26
2023-01-31T01:20:31.414Z,82.50
2023-01-31T01:25:44.802Z,81.94
2023-01-31T01:30:46.869Z,81.59
2023-01-31T01:35:48.859Z,81.37
2023-01-31T01:40:51.587Z,81.32
2023-01-31T01:45:53.648Z,81.18
2023-01-31T01:50:56.033Z,82.04
2023-01-31T01:56:03.687Z,82.53
2023-01-31T02:01:10.924Z,82.77
2023-01-31T02:06:15.982Z,83.11
2023-01-31T02:11:26.252Z,83.15
2023-01-31T02:16:29.740Z,82.95
2023-01-31T02:21:37.553Z,82.76
2023-01-31T02:26:53.295Z,82.21
2023-01-31T02:32:31.160Z,81.55
2023-01-31T02:38:02.907Z,81.05
2023-01-31T02:43:23.752Z,81.01
2023-01-31T02:48:37.001Z,80.85
2023-01-31T02:53:48.564Z,80.95
2023-01-31T02:59:02.476Z,80.32
2023-01-31T03:04:09.748Z,79.66
2023-01-31T03:09:22.204Z,78.95
2023-01-31T03:14:33.765Z,79.18
2023-01-31T03:19:51.252Z,78.82
2023-01-31T03:24:54.876Z,78.86
2023-01-31T03:30:05.524Z,78.29
2023-01-31T03:35:09.657Z,79.43
2023-01-31T03:40:21.532Z,80.51
2023-01-31T03:45:36.304Z,81.43
2023-01-31T03:50:46.542Z,82.10
2023-01-31T03:55:53.121Z,82.69
2023-01-31T04:00:58.492Z,83.41
2023-01-31T04:06:01.794Z,84.13
2023-01-31T04:11:13.949Z,84.37
2023-01-31T04:16:16.346Z,84.29
2023-01-31T04:21:18.588Z,83.81
2023-01-31T04:26:20.582Z,83.15
2023-01-31T04:31:22.486Z,82.22
2023-01-31T04:36:25.511Z,80.90
2023-01-31T04:41:28.427Z,80.19
2023-01-31T04:46:30.442Z,78.55
2023-01-31T04:51:32.878Z,78.43
2023-01-31T04:56:35.113Z,78.14
2023-01-31T05:01:38.179Z,78.02
2023-01-31T05:06:40.160Z,78.68
2023-01-31T05:11:42.341Z,80.20
2023-01-31T05:16:47.348Z,81.27
2023-01-31T05:21:55.439Z,81.87
2023-01-31T05:27:01.315Z,82.32
2023-01-31T05:32:04.046Z,82.40
2023-01-31T05:37:09.723Z,82.34
2023-01-31T05:42:14.800Z,82.28
2023-01-31T05:47:17.105Z,81.98
2023-01-31T05:52:19.311Z,81.45
2023-01-31T05:57:22.558Z,80.75
2023-01-31T06:02:24.745Z,80.27
2023-01-31T06:07:26.842Z,79.32
2023-01-31T06:12:32.068Z,78.41
2023-01-31T06:17:34.649Z,78.12
2023-01-31T06:22:36.635Z,78.21
2023-01-31T06:27:39.027Z,78.42
2023-01-31T06:32:41.038Z,78.24
2023-01-31T06:37:43.751Z,77.87
2023-01-31T06:42:46.481Z,77.64
2023-01-31T06:47:48.549Z,77.01
2023-01-31T06:53:00.615Z,76.62
2023-01-31T06:58:07.916Z,75.86
2023-01-31T07:03:10.596Z,75.81
2023-01-31T07:08:13.879Z,74.91
2023-01-31T07:13:23.392Z,75.11
2023-01-31T07:18:25.596Z,74.37
2023-01-31T07:23:31.177Z,74.07
2023-01-31T07:28:36.238Z,74.18
2023-01-31T07:33:39.827Z,74.19
2023-01-31T07:38:42.575Z,74.32
2023-01-31T07:43:44.461Z,74.61
2023-01-31T07:48:49.588Z,74.60
2023-01-31T07:53:52.323Z,74.15
2023-01-31T07:58:56.734Z,74.02
2023-01-31T08:04:10.740Z,74.14
2023-01-31T08:09:21.029Z,73.26
2023-01-31T08:14:25.940Z,73.52
2023-01-31T08:19:27.979Z,73.28
2023-01-31T08:24:31.754Z,71.92
2023-01-31T08:29:35.166Z,71.35
2023-01-31T08:34:39.911Z,71.55
2023-01-31T08:39:45.555Z,70.92
2023-01-31T08:44:47.602Z,70.77
2023-01-31T08:49:52.303Z,70.87
2023-01-31T08:54:54.319Z,69.03
2023-01-31T08:59:56.633Z,68.74
2023-01-31T09:04:58.762Z,68.29
2023-01-31T09:10:01.317Z,66.46
2023-01-31T09:15:04.654Z,67.40
2023-01-31T09:20:10.026Z,68.26
2023-01-31T09:25:12.218Z,67.44
2023-01-31T09:30:14.628Z,67.79
2023-01-31T09:35:19.343Z,66.84
2023-01-31T09:40:25.106Z,67.30
2023-01-31T09:45:32.066Z,67.37
2023-01-31T09:50:41.055Z,67.59
2023-01-31T09:56:14.231Z,67.56
2023-01-31T10:01:43.893Z,67.54
2023-01-31T10:07:17.174Z,67.98
2023-01-31T10:12:25.376Z,68.00
2023-01-31T10:17:40.711Z,67.80
2023-01-31T10:23:09.941Z,68.45
2023-01-31T10:28:22.640Z,67.66
2023-01-31T10:33:35.465Z,66.72
2023-01-31T10:38:54.805Z,66.49
2023-01-31T10:44:06.668Z,66.00
2023-01-31T10:49:10.739Z,65.58
2023-01-31T10:54:32.738Z,65.03
2023-01-31T10:59:42.379Z,65.55
2023-01-31T11:04:44.890Z,65.32
2023-01-31T11:09:54.422Z,65.43
2023-01-31T11:15:20.870Z,66.00
2023-01-31T11:20:37.325Z,65.23
2023-01-31T11:25:53.836Z,66.77
2023-01-31T11:30:56.571Z,66.57
2023-01-31T11:35:58.657Z,65.90
2023-01-31T11:41:33.997Z,65.08
2023-01-31T11:46:58.104Z,65.08
2023-01-31T11:52:12.184Z,65.46
2023-01-31T11:57:41.558Z,65.56
2023-01-31T12:02:43.863Z,65.97
2023-01-31T12:07:50.444Z,66.51
2023-01-31T12:12:53.157Z,66.95
2023-01-31T12:17:56.135Z,67.55
2023-01-31T12:23:32.230Z,67.87
2023-01-31T12:28:59.197Z,68.78
2023-01-31T12:34:13.261Z,70.17
2023-01-31T12:39:37.357Z,71.32
2023-01-31T12:44:47.731Z,71.50
2023-01-31T12:50:34.700Z,71.28
2023-01-31T12:55:46.417Z,70.83
2023-01-31T13:01:09.322Z,71.11
2023-01-31T13:06:21.601Z,70.47
2023-01-31T13:11:39.022Z,70.71
2023-01-31T13:16:46.800Z,70.50
2023-01-31T13:21:59.322Z,70.61
2023-01-31T13:27:10.623Z,70.90
2023-01-31T13:32:28.155Z,71.15
2023-01-31T13:37:35.482Z,71.09
2023-01-31T13:42:37.352Z,71.64
2023-01-31T13:47:48.447Z,72.46
2023-01-31T13:52:56.997Z,73.00
2023-01-31T13:58:05.685Z,73.78
2023-01-31T14:03:13.655Z,74.61
2023-01-31T14:08:27.660Z,75.23
2023-01-31T14:13:37.781Z,75.40
2023-01-31T14:18:46.627Z,75.57
2023-01-31T14:23:49.532Z,75.71
2023-01-31T14:28:51.955Z,75.71
2023-01-31T14:33:57.544Z,75.75
2023-01-31T14:39:38.187Z,76.05
2023-01-31T14:44:52.248Z,76.39
2023-01-31T14:50:29.547Z,76.72
2023-01-31T14:55:56.018Z,76.89
2023-01-31T15:01:01.158Z,77.06
2023-01-31T15:06:15.978Z,77.02
2023-01-31T15:11:41.409Z,77.14
2023-01-31T15:16:44.934Z,77.23
2023-01-31T15:21:52.043Z,77.97
2023-01-31T15:26:59.247Z,78.36
2023-01-31T15:32:19.157Z,78.67
2023-01-31T15:37:28.973Z,79.06
2023-01-31T15:42:33.807Z,79.00
2023-01-31T15:47:35.714Z,78.75
2023-01-31T15:52:38.335Z,78.72
2023-01-31T15:57:57.317Z,78.58
2023-01-31T16:03:00.980Z,78.62
2023-01-31T16:08:07.096Z,78.63
2023-01-31T16:13:09.328Z,78.70
2023-01-31T16:18:13.075Z,78.66
2023-01-31T16:23:28.564Z,78.57
2023-01-31T16:28:42.305Z,79.07
2023-01-31T16:33:51.065Z,79.17
2023-01-31T16:39:06.495Z,79.29
2023-01-31T16:44:18.772Z,79.25
2023-01-31T16:49:29.950Z,79.45
2023-01-31T16:54:44.414Z,79.66
2023-01-31T16:59:49.263Z,79.97
2023-01-31T17:04:53.895Z,80.85
2023-01-31T17:10:02.670Z,81.66
2023-01-31T17:15:19.947Z,82.47
2023-01-31T17:20:22.519Z,83.07
2023-01-31T17:25:30.649Z,83.46
2023-01-31T17:30:34.308Z,84.00
2023-01-31T17:35:41.833Z,84.10
2023-01-31T17:40:45.280Z,84.43
2023-01-31T17:45:50.265Z,84.79
2023-01-31T17:50:53.667Z,85.15
2023-01-31T17:55:56.256Z,85.30
2023-01-31T18:00:58.162Z,85.50
2023-01-31T18:06:08.395Z,85.45
2023-01-31T18:11:14.162Z,85.45
2023-01-31T18:16:19.226Z,85.49
2023-01-31T18:21:22.986Z,85.64
2023-01-31T18:26:25.442Z,85.73
2023-01-31T18:31:32.110Z,85.83
2023-01-31T18:36:34.435Z,85.81
2023-01-31T18:41:37.034Z,85.87
2023-01-31T18:46:41.419Z,85.88
2023-01-31T18:51:43.696Z,85.95
2023-01-31T18:56:49.767Z,86.21
2023-01-31T19:01:53.240Z,86.50
2023-01-31T19:06:55.373Z,86.73
2023-01-31T19:11:57.275Z,86.77
2023-01-31T19:16:59.672Z,86.64
2023-01-31T19:22:02.398Z,86.85
2023-01-31T19:27:11.886Z,86.90
2023-01-31T19:32:13.863Z,86.93
2023-01-31T19:37:15.887Z,86.88
2023-01-31T19:42:17.788Z,86.83
2023-01-31T19:47:20.216Z,86.85
2023-01-31T19:52:22.086Z,86.85
2023-01-31T19:57:24.628Z,86.90
2023-01-31T20:02:27.117Z,87.16
2023-01-31T20:07:29.179Z,87.06
2023-01-31T20:12:33.277Z,87.10
2023-01-31T20:17:37.519Z,87.29
2023-01-31T20:22:41.890Z,87.23
2023-01-31T20:27:43.946Z,87.33
2023-01-31T20:32:47.708Z,87.38
2023-01-31T20:37:50.191Z,87.56
2023-01-31T20:42:52.187Z,87.47
2023-01-31T20:47:56.062Z,87.45
2023-01-31T20:52:58.000Z,87.54
2023-01-31T20:58:02.000Z,87.49
2023-01-31T21:03:03.982Z,87.38
2023-01-31T21:08:06.459Z,87.30
2023-01-31T21:13:09.111Z,87.07
2023-01-31T21:18:11.045Z,86.98
2023-01-31T21:23:13.656Z,86.83
2023-01-31T21:28:16.327Z,86.74
2023-01-31T21:33:26.879Z,86.59
2023-01-31T21:38:29.002Z,86.51
2023-01-31T21:43:31.085Z,86.38
2023-01-31T21:48:33.100Z,86.22
2023-01-31T21:53:35.345Z,86.04
2023-01-31T21:58:39.269Z,85.92
2023-01-31T22:03:45.213Z,85.64
2023-01-31T22:08:52.264Z,85.29
2023-01-31T22:14:04.362Z,85.04
2023-01-31T22:19:07.083Z,84.83
2023-01-31T22:24:11.731Z,84.44
2023-01-31T22:29:16.694Z,84.25
2023-01-31T22:34:19.050Z,84.03
2023-01-31T22:39:21.904Z,83.88
2023-01-31T22:44:24.105Z,83.97
2023-01-31T22:49:25.999Z,84.05
2023-01-31T22:54:27.955Z,84.01
2023-01-31T22:59:29.957Z,83.85
2023-01-31T23:04:32.046Z,83.74
2023-01-31T23:09:33.972Z,83.47
2023-01-31T23:14:36.026Z,83.44
2023-01-31T23:19:37.971Z,83.18
2023-01-31T23:24:39.985Z,83.17
2023-01-31T23:29:44.896Z,83.45
2023-01-31T23:34:47.131Z,83.65
2023-01-31T23:39:49.414Z,84.04
2023-01-31T23:44:51.715Z,84.71
2023-01-31T23:49:53.785Z,84.89
2023-01-31T23:54:55.759Z,84.85
2023-01-31T23:59:57.752Z,84.92
